Sarah Golding — WDH4635 — position and weather

sailwx.info

Track history (hours):
 
Tides and Currents Weather Stations Pressure Air Temp Water Temp Dewpoint Dewpoint Depression Visibility Wind Speed Wind Dir Waves Ship Positions

Sarah Golding

Owner: GOLDING BARGE LINE, INC, VICKSBURG, MS. More information available from US FCC via Universal Licensing System and Coast Guard Vessel Documentation Center.

Last reported at 2018-Feb-24 20:36 UTC. Time now 2018-Feb-25 01:53 UTC.
Position N 29°24' W 094°49'.

Length 207 m; draft 2.9 m.

Type: . MMSI: 367619730.

Date/timePositionNaut miles runAvg speedWind from/ knotsBaromVisibWave heightAir tempDewpointWater temp
2018-Feb-24 20:36N 29°24' W 094°49'0 1.6
2018-Feb-24 20:29N 29°24' W 094°49'1 1.8
2018-Feb-24 20:00N 29°25' W 094°49'2 2.1
2018-Feb-24 19:11N 29°26' W 094°50'2 6.9
2018-Feb-24 18:54N 29°28' W 094°51'3 7.5
2018-Feb-24 18:30N 29°31' W 094°53'4 7.8
2018-Feb-24 18:00N 29°34' W 094°55'4 8.2
2018-Feb-24 17:30N 29°38' W 094°58'4 8.6
2018-Feb-24 17:00N 29°42' W 094°59'4 7.1
2018-Feb-24 16:30N 29°44' W 095°03'10 1.8
2018-Feb-24 10:50N 29°43' W 095°14'0 0.0
2018-Feb-24 09:43N 29°43' W 095°14'0 0.0
2018-Feb-24 08:37N 29°43' W 095°14'0 0.0
2018-Feb-24 03:31N 29°43' W 095°14'0 0.0
2018-Feb-24 03:30N 29°43' W 095°14'0 0.0
2018-Feb-24 02:56N 29°43' W 095°14'0 0.0
2018-Feb-24 01:11N 29°43' W 095°14'0 0.0
2018-Feb-24 00:42N 29°43' W 095°14'0 0.0
2018-Feb-24 00:26N 29°43' W 095°14'0 0.0
2018-Feb-23 23:10N 29°43' W 095°14'0 0.0
2018-Feb-23 22:55N 29°43' W 095°14'0 0.0
2018-Feb-23 22:27N 29°43' W 095°14'0 0.0
2018-Feb-23 21:45N 29°43' W 095°14'0 0.0
2018-Feb-23 21:30N 29°43' W 095°14'0 0.0
2018-Feb-23 20:28N 29°43' W 095°14'0 0.1
2018-Feb-23 19:37N 29°43' W 095°14'0 0.3
2018-Feb-23 19:12N 29°43' W 095°14'3 0.2
2018-Feb-23 07:27N 29°45' W 095°11'3 6.4
2018-Feb-23 06:55N 29°44' W 095°08'3 0.3
2018-Feb-22 19:43N 29°45' W 095°04'2 8.6
2018-Feb-22 19:30N 29°44' W 095°03'4 7.4
2018-Feb-22 19:00N 29°42' W 094°60'5 9.0
2018-Feb-22 18:30N 29°38' W 094°58'5 9.2
2018-Feb-22 18:00N 29°34' W 094°55'5 9.5
2018-Feb-22 17:30N 29°30' W 094°52'23 1.1
2018-Feb-21 20:20N 29°34' W 094°25'2 5.3
2018-Feb-21 19:59N 29°36' W 094°25'3 5.9
2018-Feb-21 19:29N 29°37' W 094°21'0 1.0
2018-Feb-21 19:00N 29°37' W 094°21'0 0.9
2018-Feb-21 18:30N 29°37' W 094°21'0 0.3
2018-Feb-21 18:00N 29°37' W 094°20'2 4.4
2018-Feb-21 17:30N 29°38' W 094°18'3 5.8
2018-Feb-21 17:00N 29°39' W 094°15'3 6.4
2018-Feb-21 16:30N 29°41' W 094°12'3 6.5
2018-Feb-21 16:00N 29°42' W 094°08'1 1.9
2018-Feb-21 15:31N 29°43' W 094°08'1 2.0
2018-Feb-21 15:00N 29°43' W 094°07'3 5.7
2018-Feb-21 14:30N 29°45' W 094°04'3 6.7
2018-Feb-21 14:00N 29°47' W 094°01'3 6.2
2018-Feb-21 13:30N 29°49' W 093°58'4 7.5
2018-Feb-21 13:00N 29°52' W 093°56'5 9.3
2018-Feb-21 12:30N 29°56' W 093°52'0 0.7
2018-Feb-21 12:00N 29°56' W 093°52'0 0.0
2018-Feb-21 11:30N 29°56' W 093°52'0 0.0
2018-Feb-21 11:00N 29°56' W 093°52'0 0.0
2018-Feb-21 10:30N 29°56' W 093°52'0 0.0
2018-Feb-21 10:00N 29°56' W 093°52'0 0.0
2018-Feb-21 09:30N 29°56' W 093°52'0 0.1
2018-Feb-21 09:01N 29°56' W 093°52'0 0.0
2018-Feb-21 08:30N 29°56' W 093°52'0 0.0
2018-Feb-21 08:00N 29°56' W 093°52'0 0.0
2018-Feb-21 07:30N 29°56' W 093°52'0 0.0
2018-Feb-21 07:00N 29°56' W 093°52'0 0.2
2018-Feb-21 06:31N 29°56' W 093°52'0 0.0
2018-Feb-21 06:00N 29°56' W 093°52'2 3.8
2018-Feb-21 05:30N 29°58' W 093°51'4 7.4
2018-Feb-21 04:59N 29°60' W 093°47'3 5.6
2018-Feb-21 04:30N 30°01' W 093°45'3 5.4
2018-Feb-21 04:00N 30°03' W 093°43'2 3.3
2018-Feb-21 03:30N 30°04' W 093°41'1 2.4
2018-Feb-21 03:00N 30°04' W 093°40'2 4.5
2018-Feb-21 02:29N 30°04' W 093°37'3 5.5
2018-Feb-21 02:00N 30°04' W 093°34'3 5.7
2018-Feb-21 01:30N 30°04' W 093°31'3 5.8
2018-Feb-21 01:00N 30°04' W 093°27'3 6.1
2018-Feb-21 00:30N 30°04' W 093°24'3 6.1
2018-Feb-21 00:00N 30°05' W 093°20'3 6.0
2018-Feb-20 23:30N 30°08' W 093°20'2 4.3
2018-Feb-20 23:00N 30°10' W 093°19'0 0.2
2018-Feb-20 22:30N 30°10' W 093°19'0 0.0
2018-Feb-20 22:00N 30°10' W 093°19'0 0.0
2018-Feb-20 21:30N 30°10' W 093°19'0 0.0
2018-Feb-20 21:00N 30°10' W 093°19'0 0.0
2018-Feb-20 20:30N 30°10' W 093°19'0 0.0
2018-Feb-20 20:00N 30°10' W 093°19'0 0.0
2018-Feb-20 19:30N 30°10' W 093°19'0 0.0
2018-Feb-20 19:00N 30°10' W 093°19'0 0.0
2018-Feb-20 18:30N 30°10' W 093°19'0 0.0
2018-Feb-20 18:00N 30°10' W 093°19'0 0.0
2018-Feb-20 17:30N 30°10' W 093°19'0 0.0
2018-Feb-20 17:00N 30°10' W 093°19'0 0.0
2018-Feb-20 16:30N 30°10' W 093°19'0 0.0
2018-Feb-20 16:00N 30°10' W 093°19'0 0.0
2018-Feb-20 15:30N 30°10' W 093°19'0 0.0
2018-Feb-20 15:00N 30°10' W 093°19'0 0.0
2018-Feb-20 14:30N 30°10' W 093°19'0 0.0
2018-Feb-20 14:00N 30°10' W 093°19'0 0.0
2018-Feb-20 13:30N 30°10' W 093°19'0 0.0
2018-Feb-20 13:00N 30°10' W 093°19'0 0.0
2018-Feb-20 12:30N 30°10' W 093°19'0 0.0
2018-Feb-20 12:00N 30°10' W 093°19'0 0.0
2018-Feb-20 11:30N 30°10' W 093°19'0 0.0
2018-Feb-20 11:00N 30°10' W 093°19'0 0.0
2018-Feb-20 10:30N 30°10' W 093°19'0 0.0
2018-Feb-20 10:00N 30°10' W 093°19'0 0.0
2018-Feb-20 09:30N 30°10' W 093°19'0 0.0
2018-Feb-20 09:00N 30°10' W 093°19'0 0.0
2018-Feb-20 08:30N 30°10' W 093°19'0 0.0
2018-Feb-20 07:50N 30°10' W 093°19'0 0.0
2018-Feb-20 07:30N 30°10' W 093°19'0 0.0
2018-Feb-20 07:00N 30°10' W 093°19'0 0.0
2018-Feb-20 06:30N 30°10' W 093°19'0 0.0
2018-Feb-20 06:00N 30°10' W 093°19'0 0.0
2018-Feb-20 05:30N 30°10' W 093°19'0 0.0
2018-Feb-20 05:00N 30°10' W 093°19'0 0.0
2018-Feb-20 04:30N 30°10' W 093°19'0 0.0
2018-Feb-20 04:00N 30°10' W 093°19'0 0.0
2018-Feb-20 03:30N 30°10' W 093°19'0 0.0
2018-Feb-20 03:00N 30°10' W 093°19'0 0.0
2018-Feb-20 02:30N 30°10' W 093°19'0 0.0
2018-Feb-20 02:00N 30°10' W 093°19'0 0.0
2018-Feb-20 01:30N 30°10' W 093°19'0 0.0
2018-Feb-20 01:00N 30°10' W 093°19'0 0.0
2018-Feb-20 00:30N 30°10' W 093°19'0 0.0
2018-Feb-20 00:00N 30°10' W 093°19'0 0.0
2018-Feb-19 23:30N 30°10' W 093°19'0 0.0
2018-Feb-19 23:00N 30°10' W 093°19'0 0.0
2018-Feb-19 22:30N 30°10' W 093°19'0 0.0
2018-Feb-19 22:00N 30°10' W 093°19'0 0.0
2018-Feb-19 21:30N 30°10' W 093°19'0 0.0
2018-Feb-19 21:00N 30°10' W 093°19'0 0.0
2018-Feb-19 20:30N 30°10' W 093°19'0 0.0
2018-Feb-19 20:00N 30°10' W 093°19'0 0.0
2018-Feb-19 19:30N 30°10' W 093°19'0 0.0
2018-Feb-19 19:00N 30°10' W 093°19'0 0.0
2018-Feb-19 18:29N 30°10' W 093°19'0 0.0
2018-Feb-19 18:00N 30°10' W 093°19'0 0.0
2018-Feb-19 17:30N 30°10' W 093°19'0 0.0
2018-Feb-19 17:00N 30°10' W 093°19'0 0.0
2018-Feb-19 16:30N 30°10' W 093°19'0 0.0
2018-Feb-19 16:00N 30°10' W 093°19'0 0.0
2018-Feb-19 15:30N 30°10' W 093°19'0 0.0
2018-Feb-19 15:00N 30°10' W 093°19'1 2.1
2018-Feb-19 14:28N 30°09' W 093°20'0 0.6
2018-Feb-19 14:00N 30°08' W 093°20'1 3.0
2018-Feb-19 13:30N 30°07' W 093°20'1 1.8
2018-Feb-19 13:00N 30°06' W 093°20'2 4.3
2018-Feb-19 12:30N 30°04' W 093°21'2 3.5
2018-Feb-19 12:00N 30°04' W 093°23'2 3.1
2018-Feb-19 11:30N 30°04' W 093°24'2 4.1
2018-Feb-19 11:00N 30°04' W 093°27'2 3.5
2018-Feb-19 10:30N 30°04' W 093°29'1 2.6
2018-Feb-19 10:00N 30°04' W 093°30'0 0.0
2018-Feb-19 09:28N 30°04' W 093°30'0 0.0
2018-Feb-19 09:00N 30°04' W 093°30'0 0.0
2018-Feb-19 08:30N 30°04' W 093°30'0 0.0
2018-Feb-19 08:00N 30°04' W 093°30'0 0.0
2018-Feb-19 07:30N 30°04' W 093°30'0 0.0
2018-Feb-19 07:00N 30°04' W 093°30'0 0.0
2018-Feb-19 06:30N 30°04' W 093°30'0 0.0
2018-Feb-19 06:00N 30°04' W 093°30'0 0.0
2018-Feb-19 05:30N 30°04' W 093°30'0 0.0
2018-Feb-19 05:00N 30°04' W 093°30'0 0.0
2018-Feb-19 04:30N 30°04' W 093°30'0 0.0
2018-Feb-19 04:00N 30°04' W 093°30'0 0.0
2018-Feb-19 03:30N 30°04' W 093°30'0 0.0
2018-Feb-19 03:00N 30°04' W 093°30'0 0.0
2018-Feb-19 02:30N 30°04' W 093°30'0 0.0
2018-Feb-19 02:00N 30°04' W 093°30'0 0.0
2018-Feb-19 01:30N 30°04' W 093°30'0 0.5
2018-Feb-19 00:58N 30°04' W 093°31'2 4.4
2018-Feb-19 00:29N 30°04' W 093°33'2 4.3
2018-Feb-19 00:00N 30°04' W 093°36'3 5.3
2018-Feb-18 23:30N 30°04' W 093°39'3 5.6
2018-Feb-18 23:00N 30°03' W 093°42'3 5.1
2018-Feb-18 22:30N 30°02' W 093°44'2 4.3
2018-Feb-18 22:00N 30°00' W 093°46'2 4.3
2018-Feb-18 21:30N 29°59' W 093°48'2 4.5
2018-Feb-18 21:00N 29°58' W 093°50'2 4.5
2018-Feb-18 20:30N 29°57' W 093°52'2 4.6
2018-Feb-18 20:00N 29°55' W 093°53'2 4.6
2018-Feb-18 19:30N 29°53' W 093°55'2 4.0
2018-Feb-18 19:00N 29°51' W 093°56'2 4.0
2018-Feb-18 18:31N 29°50' W 093°57'2 3.2
2018-Feb-18 18:00N 29°49' W 093°59'0 0.1
2018-Feb-18 17:30N 29°49' W 093°59'0 0.0
2018-Feb-18 17:00N 29°49' W 093°59'0 0.0
2018-Feb-18 16:30N 29°49' W 093°59'0 0.0
2018-Feb-18 16:00N 29°49' W 093°59'0 0.0
2018-Feb-18 15:30N 29°49' W 093°59'0 0.0
2018-Feb-18 15:00N 29°49' W 093°59'0 0.0
2018-Feb-18 14:30N 29°49' W 093°59'0 0.0
2018-Feb-18 14:00N 29°49' W 093°59'0 0.0
2018-Feb-18 13:30N 29°49' W 093°59'0 0.0
2018-Feb-18 13:00N 29°49' W 093°59'0 0.0
2018-Feb-18 12:30N 29°49' W 093°59'0 0.0
2018-Feb-18 12:00N 29°49' W 093°59'0 0.0
2018-Feb-18 11:30N 29°49' W 093°59'0 0.0
2018-Feb-18 11:00N 29°49' W 093°59'0 0.0
2018-Feb-18 10:30N 29°49' W 093°59'0 0.0
2018-Feb-18 10:00N 29°49' W 093°59'0 0.0
2018-Feb-18 09:30N 29°49' W 093°59'0 0.0
2018-Feb-18 09:00N 29°49' W 093°59'0 0.0
2018-Feb-18 08:30N 29°49' W 093°59'0 0.0
2018-Feb-18 08:00N 29°49' W 093°59'0 0.0
2018-Feb-18 07:30N 29°49' W 093°59'0 0.0
2018-Feb-18 07:00N 29°49' W 093°59'0 0.0
2018-Feb-18 06:30N 29°49' W 093°59'0 0.0
2018-Feb-18 06:00N 29°49' W 093°59'0 0.0
2018-Feb-18 05:29N 29°49' W 093°59'0 0.0
2018-Feb-18 05:00N 29°49' W 093°59'0 0.0
2018-Feb-18 04:30N 29°49' W 093°59'0 0.0
2018-Feb-18 04:00N 29°49' W 093°59'0 0.0
2018-Feb-18 03:30N 29°49' W 093°59'0 0.0
2018-Feb-18 03:00N 29°49' W 093°59'0 0.0
2018-Feb-18 02:30N 29°49' W 093°59'0 0.0
2018-Feb-18 02:00N 29°49' W 093°59'0 0.1
2018-Feb-18 01:30N 29°49' W 093°59'1 1.4
2018-Feb-18 01:00N 29°49' W 093°60'2 4.7
2018-Feb-18 00:30N 29°47' W 094°02'2 4.7
2018-Feb-18 00:00N 29°45' W 094°04'2 4.9
2018-Feb-17 23:31N 29°44' W 094°06'2 4.3
2018-Feb-17 23:00N 29°43' W 094°08'2 4.2
2018-Feb-17 22:30N 29°41' W 094°10'2 4.0
2018-Feb-17 22:00N 29°41' W 094°12'2 3.9
2018-Feb-17 21:30N 29°40' W 094°14'2 4.0
2018-Feb-17 21:00N 29°39' W 094°16'2 4.2
2018-Feb-17 20:29N 29°38' W 094°18'2 3.8
2018-Feb-17 19:57N 29°37' W 094°20'1 3.1
2018-Feb-17 19:30N 29°36' W 094°22'2 3.4
2018-Feb-17 18:58N 29°36' W 094°24'2 3.5
2018-Feb-17 18:30N 29°35' W 094°25'2 3.5
2018-Feb-17 17:59N 29°34' W 094°27'2 4.0
2018-Feb-17 17:29N 29°32' W 094°29'7 2.9
2018-Feb-17 15:02N 29°29' W 094°36'0 0.0
2018-Feb-17 14:09N 29°29' W 094°36'0 0.0
2018-Feb-17 13:43N 29°29' W 094°36'0 0.0
2018-Feb-17 13:14N 29°29' W 094°36'0 0.0
2018-Feb-17 12:59N 29°29' W 094°36'0 0.0
2018-Feb-17 12:16N 29°29' W 094°36'0 0.0
2018-Feb-17 11:56N 29°29' W 094°36'0 0.0
2018-Feb-17 11:29N 29°29' W 094°36'0 0.0
2018-Feb-17 10:53N 29°29' W 094°36'0 0.0
2018-Feb-17 10:22N 29°29' W 094°36'0 0.0
2018-Feb-17 09:54N 29°29' W 094°36'0 0.0
2018-Feb-17 09:28N 29°29' W 094°36'0 0.0
2018-Feb-17 09:00N 29°29' W 094°36'0 0.0
2018-Feb-17 08:29N 29°29' W 094°36'0 0.0
2018-Feb-17 07:59N 29°29' W 094°36'0 0.0
2018-Feb-17 07:29N 29°29' W 094°36'0 0.0
2018-Feb-17 07:00N 29°29' W 094°36'0 0.0
2018-Feb-17 06:30N 29°29' W 094°36'0 0.0
2018-Feb-17 06:00N 29°29' W 094°36'0 0.0
2018-Feb-17 05:30N 29°29' W 094°36'0 0.0
2018-Feb-17 05:00N 29°29' W 094°36'0 0.0
2018-Feb-17 04:30N 29°29' W 094°36'0 0.0
2018-Feb-17 04:00N 29°29' W 094°36'0 0.0
2018-Feb-17 03:30N 29°29' W 094°36'0 0.0
2018-Feb-17 02:57N 29°29' W 094°36'0 0.0
2018-Feb-17 02:30N 29°29' W 094°36'0 0.1
2018-Feb-17 02:00N 29°29' W 094°36'0 0.1
2018-Feb-17 01:29N 29°29' W 094°36'0 0.1
2018-Feb-17 00:54N 29°29' W 094°36'0 0.0
2018-Feb-17 00:30N 29°29' W 094°36'0 0.0
2018-Feb-16 23:37N 29°29' W 094°36'0 0.2
2018-Feb-16 23:30N 29°29' W 094°36'0 0.2
2018-Feb-16 23:00N 29°29' W 094°36'13 3.1
2018-Feb-16 18:50N 29°26' W 094°50'3 7.8
2018-Feb-16 18:30N 29°29' W 094°51'4 8.2
2018-Feb-16 18:00N 29°32' W 094°54'4 7.8
2018-Feb-16 17:30N 29°35' W 094°56'4 7.7
2018-Feb-16 17:00N 29°39' W 094°58'4 8.0
2018-Feb-16 16:30N 29°42' W 095°01'4 7.9
2018-Feb-16 16:00N 29°45' W 095°04'2 4.1
2018-Feb-16 15:30N 29°46' W 095°06'0 0.5
2018-Feb-16 14:50N 29°46' W 095°06'0 0.0
2018-Feb-16 14:30N 29°46' W 095°06'0 0.0
2018-Feb-16 05:20N 29°46' W 095°06'0 0.0
2018-Feb-16 04:51N 29°46' W 095°06'0 0.0
2018-Feb-16 04:23N 29°46' W 095°06'0 0.0
2018-Feb-16 03:58N 29°46' W 095°06'0 0.0
2018-Feb-16 03:26N 29°46' W 095°06'0 0.0
2018-Feb-15 17:19N 29°46' W 095°06'1 1.6
2018-Feb-15 16:59N 29°46' W 095°05'  
Track history (hours):
 
Tides and Currents Weather Stations Pressure Air Temp Water Temp Dewpoint Dewpoint Depression Visibility Wind Speed Wind Dir Waves Ship Positions

Sarah Golding

Owner: GOLDING BARGE LINE, INC, VICKSBURG, MS. More information available from US FCC via Universal Licensing System and Coast Guard Vessel Documentation Center.

Last reported at 2018-Feb-24 20:36 UTC. Time now 2018-Feb-25 01:53 UTC.
Position N 29°24' W 094°49'.

Length 207 m; draft 2.9 m.

Type: . MMSI: 367619730.

Date/timePositionNaut miles runAvg speedWind from/ knotsBaromVisibWave heightAir tempDewpointWater temp
2018-Feb-24 20:36N 29°24' W 094°49'0 1.6
2018-Feb-24 20:29N 29°24' W 094°49'1 1.8
2018-Feb-24 20:00N 29°25' W 094°49'2 2.1
2018-Feb-24 19:11N 29°26' W 094°50'2 6.9
2018-Feb-24 18:54N 29°28' W 094°51'3 7.5
2018-Feb-24 18:30N 29°31' W 094°53'4 7.8
2018-Feb-24 18:00N 29°34' W 094°55'4 8.2
2018-Feb-24 17:30N 29°38' W 094°58'4 8.6
2018-Feb-24 17:00N 29°42' W 094°59'4 7.1
2018-Feb-24 16:30N 29°44' W 095°03'10 1.8
2018-Feb-24 10:50N 29°43' W 095°14'0 0.0
2018-Feb-24 09:43N 29°43' W 095°14'0 0.0
2018-Feb-24 08:37N 29°43' W 095°14'0 0.0
2018-Feb-24 03:31N 29°43' W 095°14'0 0.0
2018-Feb-24 03:30N 29°43' W 095°14'0 0.0
2018-Feb-24 02:56N 29°43' W 095°14'0 0.0
2018-Feb-24 01:11N 29°43' W 095°14'0 0.0
2018-Feb-24 00:42N 29°43' W 095°14'0 0.0
2018-Feb-24 00:26N 29°43' W 095°14'0 0.0
2018-Feb-23 23:10N 29°43' W 095°14'0 0.0
2018-Feb-23 22:55N 29°43' W 095°14'0 0.0
2018-Feb-23 22:27N 29°43' W 095°14'0 0.0
2018-Feb-23 21:45N 29°43' W 095°14'0 0.0
2018-Feb-23 21:30N 29°43' W 095°14'0 0.0
2018-Feb-23 20:28N 29°43' W 095°14'0 0.1
2018-Feb-23 19:37N 29°43' W 095°14'0 0.3
2018-Feb-23 19:12N 29°43' W 095°14'3 0.2
2018-Feb-23 07:27N 29°45' W 095°11'3 6.4
2018-Feb-23 06:55N 29°44' W 095°08'3 0.3
2018-Feb-22 19:43N 29°45' W 095°04'2 8.6
2018-Feb-22 19:30N 29°44' W 095°03'4 7.4
2018-Feb-22 19:00N 29°42' W 094°60'5 9.0
2018-Feb-22 18:30N 29°38' W 094°58'5 9.2
2018-Feb-22 18:00N 29°34' W 094°55'5 9.5
2018-Feb-22 17:30N 29°30' W 094°52'23 1.1
2018-Feb-21 20:20N 29°34' W 094°25'2 5.3
2018-Feb-21 19:59N 29°36' W 094°25'3 5.9
2018-Feb-21 19:29N 29°37' W 094°21'0 1.0
2018-Feb-21 19:00N 29°37' W 094°21'0 0.9
2018-Feb-21 18:30N 29°37' W 094°21'0 0.3
2018-Feb-21 18:00N 29°37' W 094°20'2 4.4
2018-Feb-21 17:30N 29°38' W 094°18'3 5.8
2018-Feb-21 17:00N 29°39' W 094°15'3 6.4
2018-Feb-21 16:30N 29°41' W 094°12'3 6.5
2018-Feb-21 16:00N 29°42' W 094°08'1 1.9
2018-Feb-21 15:31N 29°43' W 094°08'1 2.0
2018-Feb-21 15:00N 29°43' W 094°07'3 5.7
2018-Feb-21 14:30N 29°45' W 094°04'3 6.7
2018-Feb-21 14:00N 29°47' W 094°01'3 6.2
2018-Feb-21 13:30N 29°49' W 093°58'4 7.5
2018-Feb-21 13:00N 29°52' W 093°56'5 9.3
2018-Feb-21 12:30N 29°56' W 093°52'0 0.7
2018-Feb-21 12:00N 29°56' W 093°52'0 0.0
2018-Feb-21 11:30N 29°56' W 093°52'0 0.0
2018-Feb-21 11:00N 29°56' W 093°52'0 0.0
2018-Feb-21 10:30N 29°56' W 093°52'0 0.0
2018-Feb-21 10:00N 29°56' W 093°52'0 0.0
2018-Feb-21 09:30N 29°56' W 093°52'0 0.1
2018-Feb-21 09:01N 29°56' W 093°52'0 0.0
2018-Feb-21 08:30N 29°56' W 093°52'0 0.0
2018-Feb-21 08:00N 29°56' W 093°52'0 0.0
2018-Feb-21 07:30N 29°56' W 093°52'0 0.0
2018-Feb-21 07:00N 29°56' W 093°52'0 0.2
2018-Feb-21 06:31N 29°56' W 093°52'0 0.0
2018-Feb-21 06:00N 29°56' W 093°52'2 3.8
2018-Feb-21 05:30N 29°58' W 093°51'4 7.4
2018-Feb-21 04:59N 29°60' W 093°47'3 5.6
2018-Feb-21 04:30N 30°01' W 093°45'3 5.4
2018-Feb-21 04:00N 30°03' W 093°43'2 3.3
2018-Feb-21 03:30N 30°04' W 093°41'1 2.4
2018-Feb-21 03:00N 30°04' W 093°40'2 4.5
2018-Feb-21 02:29N 30°04' W 093°37'3 5.5
2018-Feb-21 02:00N 30°04' W 093°34'3 5.7
2018-Feb-21 01:30N 30°04' W 093°31'3 5.8
2018-Feb-21 01:00N 30°04' W 093°27'3 6.1
2018-Feb-21 00:30N 30°04' W 093°24'3 6.1
2018-Feb-21 00:00N 30°05' W 093°20'3 6.0
2018-Feb-20 23:30N 30°08' W 093°20'2 4.3
2018-Feb-20 23:00N 30°10' W 093°19'0 0.2
2018-Feb-20 22:30N 30°10' W 093°19'0 0.0
2018-Feb-20 22:00N 30°10' W 093°19'0 0.0
2018-Feb-20 21:30N 30°10' W 093°19'0 0.0
2018-Feb-20 21:00N 30°10' W 093°19'0 0.0
2018-Feb-20 20:30N 30°10' W 093°19'0 0.0
2018-Feb-20 20:00N 30°10' W 093°19'0 0.0
2018-Feb-20 19:30N 30°10' W 093°19'0 0.0
2018-Feb-20 19:00N 30°10' W 093°19'0 0.0
2018-Feb-20 18:30N 30°10' W 093°19'0 0.0
2018-Feb-20 18:00N 30°10' W 093°19'0 0.0
2018-Feb-20 17:30N 30°10' W 093°19'0 0.0
2018-Feb-20 17:00N 30°10' W 093°19'0 0.0
2018-Feb-20 16:30N 30°10' W 093°19'0 0.0
2018-Feb-20 16:00N 30°10' W 093°19'0 0.0
2018-Feb-20 15:30N 30°10' W 093°19'0 0.0
2018-Feb-20 15:00N 30°10' W 093°19'0 0.0
2018-Feb-20 14:30N 30°10' W 093°19'0 0.0
2018-Feb-20 14:00N 30°10' W 093°19'0 0.0
2018-Feb-20 13:30N 30°10' W 093°19'0 0.0
2018-Feb-20 13:00N 30°10' W 093°19'0 0.0
2018-Feb-20 12:30N 30°10' W 093°19'0 0.0
2018-Feb-20 12:00N 30°10' W 093°19'0 0.0
2018-Feb-20 11:30N 30°10' W 093°19'0 0.0
2018-Feb-20 11:00N 30°10' W 093°19'0 0.0
2018-Feb-20 10:30N 30°10' W 093°19'0 0.0
2018-Feb-20 10:00N 30°10' W 093°19'0 0.0
2018-Feb-20 09:30N 30°10' W 093°19'0 0.0
2018-Feb-20 09:00N 30°10' W 093°19'0 0.0
2018-Feb-20 08:30N 30°10' W 093°19'0 0.0
2018-Feb-20 07:50N 30°10' W 093°19'0 0.0
2018-Feb-20 07:30N 30°10' W 093°19'0 0.0
2018-Feb-20 07:00N 30°10' W 093°19'0 0.0
2018-Feb-20 06:30N 30°10' W 093°19'0 0.0
2018-Feb-20 06:00N 30°10' W 093°19'0 0.0
2018-Feb-20 05:30N 30°10' W 093°19'0 0.0
2018-Feb-20 05:00N 30°10' W 093°19'0 0.0
2018-Feb-20 04:30N 30°10' W 093°19'0 0.0
2018-Feb-20 04:00N 30°10' W 093°19'0 0.0
2018-Feb-20 03:30N 30°10' W 093°19'0 0.0
2018-Feb-20 03:00N 30°10' W 093°19'0 0.0
2018-Feb-20 02:30N 30°10' W 093°19'0 0.0
2018-Feb-20 02:00N 30°10' W 093°19'0 0.0
2018-Feb-20 01:30N 30°10' W 093°19'0 0.0
2018-Feb-20 01:00N 30°10' W 093°19'0 0.0
2018-Feb-20 00:30N 30°10' W 093°19'0 0.0
2018-Feb-20 00:00N 30°10' W 093°19'0 0.0
2018-Feb-19 23:30N 30°10' W 093°19'0 0.0
2018-Feb-19 23:00N 30°10' W 093°19'0 0.0
2018-Feb-19 22:30N 30°10' W 093°19'0 0.0
2018-Feb-19 22:00N 30°10' W 093°19'0 0.0
2018-Feb-19 21:30N 30°10' W 093°19'0 0.0
2018-Feb-19 21:00N 30°10' W 093°19'0 0.0
2018-Feb-19 20:30N 30°10' W 093°19'0 0.0
2018-Feb-19 20:00N 30°10' W 093°19'0 0.0
2018-Feb-19 19:30N 30°10' W 093°19'0 0.0
2018-Feb-19 19:00N 30°10' W 093°19'0 0.0
2018-Feb-19 18:29N 30°10' W 093°19'0 0.0
2018-Feb-19 18:00N 30°10' W 093°19'0 0.0
2018-Feb-19 17:30N 30°10' W 093°19'0 0.0
2018-Feb-19 17:00N 30°10' W 093°19'0 0.0
2018-Feb-19 16:30N 30°10' W 093°19'0 0.0
2018-Feb-19 16:00N 30°10' W 093°19'0 0.0
2018-Feb-19 15:30N 30°10' W 093°19'0 0.0
2018-Feb-19 15:00N 30°10' W 093°19'1 2.1
2018-Feb-19 14:28N 30°09' W 093°20'0 0.6
2018-Feb-19 14:00N 30°08' W 093°20'1 3.0
2018-Feb-19 13:30N 30°07' W 093°20'1 1.8
2018-Feb-19 13:00N 30°06' W 093°20'2 4.3
2018-Feb-19 12:30N 30°04' W 093°21'2 3.5
2018-Feb-19 12:00N 30°04' W 093°23'2 3.1
2018-Feb-19 11:30N 30°04' W 093°24'2 4.1
2018-Feb-19 11:00N 30°04' W 093°27'2 3.5
2018-Feb-19 10:30N 30°04' W 093°29'1 2.6
2018-Feb-19 10:00N 30°04' W 093°30'0 0.0
2018-Feb-19 09:28N 30°04' W 093°30'0 0.0
2018-Feb-19 09:00N 30°04' W 093°30'0 0.0
2018-Feb-19 08:30N 30°04' W 093°30'0 0.0
2018-Feb-19 08:00N 30°04' W 093°30'0 0.0
2018-Feb-19 07:30N 30°04' W 093°30'0 0.0
2018-Feb-19 07:00N 30°04' W 093°30'0 0.0
2018-Feb-19 06:30N 30°04' W 093°30'0 0.0
2018-Feb-19 06:00N 30°04' W 093°30'0 0.0
2018-Feb-19 05:30N 30°04' W 093°30'0 0.0
2018-Feb-19 05:00N 30°04' W 093°30'0 0.0
2018-Feb-19 04:30N 30°04' W 093°30'0 0.0
2018-Feb-19 04:00N 30°04' W 093°30'0 0.0
2018-Feb-19 03:30N 30°04' W 093°30'0 0.0
2018-Feb-19 03:00N 30°04' W 093°30'0 0.0
2018-Feb-19 02:30N 30°04' W 093°30'0 0.0
2018-Feb-19 02:00N 30°04' W 093°30'0 0.0
2018-Feb-19 01:30N 30°04' W 093°30'0 0.5
2018-Feb-19 00:58N 30°04' W 093°31'2 4.4
2018-Feb-19 00:29N 30°04' W 093°33'2 4.3
2018-Feb-19 00:00N 30°04' W 093°36'3 5.3
2018-Feb-18 23:30N 30°04' W 093°39'3 5.6
2018-Feb-18 23:00N 30°03' W 093°42'3 5.1
2018-Feb-18 22:30N 30°02' W 093°44'2 4.3
2018-Feb-18 22:00N 30°00' W 093°46'2 4.3
2018-Feb-18 21:30N 29°59' W 093°48'2 4.5
2018-Feb-18 21:00N 29°58' W 093°50'2 4.5
2018-Feb-18 20:30N 29°57' W 093°52'2 4.6
2018-Feb-18 20:00N 29°55' W 093°53'2 4.6
2018-Feb-18 19:30N 29°53' W 093°55'2 4.0
2018-Feb-18 19:00N 29°51' W 093°56'2 4.0
2018-Feb-18 18:31N 29°50' W 093°57'2 3.2
2018-Feb-18 18:00N 29°49' W 093°59'0 0.1
2018-Feb-18 17:30N 29°49' W 093°59'0 0.0
2018-Feb-18 17:00N 29°49' W 093°59'0 0.0
2018-Feb-18 16:30N 29°49' W 093°59'0 0.0
2018-Feb-18 16:00N 29°49' W 093°59'0 0.0
2018-Feb-18 15:30N 29°49' W 093°59'0 0.0
2018-Feb-18 15:00N 29°49' W 093°59'0 0.0
2018-Feb-18 14:30N 29°49' W 093°59'0 0.0
2018-Feb-18 14:00N 29°49' W 093°59'0 0.0
2018-Feb-18 13:30N 29°49' W 093°59'0 0.0
2018-Feb-18 13:00N 29°49' W 093°59'0 0.0
2018-Feb-18 12:30N 29°49' W 093°59'0 0.0
2018-Feb-18 12:00N 29°49' W 093°59'0 0.0
2018-Feb-18 11:30N 29°49' W 093°59'0 0.0
2018-Feb-18 11:00N 29°49' W 093°59'0 0.0
2018-Feb-18 10:30N 29°49' W 093°59'0 0.0
2018-Feb-18 10:00N 29°49' W 093°59'0 0.0
2018-Feb-18 09:30N 29°49' W 093°59'0 0.0
2018-Feb-18 09:00N 29°49' W 093°59'0 0.0
2018-Feb-18 08:30N 29°49' W 093°59'0 0.0
2018-Feb-18 08:00N 29°49' W 093°59'0 0.0
2018-Feb-18 07:30N 29°49' W 093°59'0 0.0
2018-Feb-18 07:00N 29°49' W 093°59'0 0.0
2018-Feb-18 06:30N 29°49' W 093°59'0 0.0
2018-Feb-18 06:00N 29°49' W 093°59'0 0.0
2018-Feb-18 05:29N 29°49' W 093°59'0 0.0
2018-Feb-18 05:00N 29°49' W 093°59'0 0.0
2018-Feb-18 04:30N 29°49' W 093°59'0 0.0
2018-Feb-18 04:00N 29°49' W 093°59'0 0.0
2018-Feb-18 03:30N 29°49' W 093°59'0 0.0
2018-Feb-18 03:00N 29°49' W 093°59'0 0.0
2018-Feb-18 02:30N 29°49' W 093°59'0 0.0
2018-Feb-18 02:00N 29°49' W 093°59'0 0.1
2018-Feb-18 01:30N 29°49' W 093°59'1 1.4
2018-Feb-18 01:00N 29°49' W 093°60'2 4.7
2018-Feb-18 00:30N 29°47' W 094°02'2 4.7
2018-Feb-18 00:00N 29°45' W 094°04'2 4.9
2018-Feb-17 23:31N 29°44' W 094°06'2 4.3
2018-Feb-17 23:00N 29°43' W 094°08'2 4.2
2018-Feb-17 22:30N 29°41' W 094°10'2 4.0
2018-Feb-17 22:00N 29°41' W 094°12'2 3.9
2018-Feb-17 21:30N 29°40' W 094°14'2 4.0
2018-Feb-17 21:00N 29°39' W 094°16'2 4.2
2018-Feb-17 20:29N 29°38' W 094°18'2 3.8
2018-Feb-17 19:57N 29°37' W 094°20'1 3.1
2018-Feb-17 19:30N 29°36' W 094°22'2 3.4
2018-Feb-17 18:58N 29°36' W 094°24'2 3.5
2018-Feb-17 18:30N 29°35' W 094°25'2 3.5
2018-Feb-17 17:59N 29°34' W 094°27'2 4.0
2018-Feb-17 17:29N 29°32' W 094°29'7 2.9
2018-Feb-17 15:02N 29°29' W 094°36'0 0.0
2018-Feb-17 14:09N 29°29' W 094°36'0 0.0
2018-Feb-17 13:43N 29°29' W 094°36'0 0.0
2018-Feb-17 13:14N 29°29' W 094°36'0 0.0
2018-Feb-17 12:59N 29°29' W 094°36'0 0.0
2018-Feb-17 12:16N 29°29' W 094°36'0 0.0
2018-Feb-17 11:56N 29°29' W 094°36'0 0.0
2018-Feb-17 11:29N 29°29' W 094°36'0 0.0
2018-Feb-17 10:53N 29°29' W 094°36'0 0.0
2018-Feb-17 10:22N 29°29' W 094°36'0 0.0
2018-Feb-17 09:54N 29°29' W 094°36'0 0.0
2018-Feb-17 09:28N 29°29' W 094°36'0 0.0
2018-Feb-17 09:00N 29°29' W 094°36'0 0.0
2018-Feb-17 08:29N 29°29' W 094°36'0 0.0
2018-Feb-17 07:59N 29°29' W 094°36'0 0.0
2018-Feb-17 07:29N 29°29' W 094°36'0 0.0
2018-Feb-17 07:00N 29°29' W 094°36'0 0.0
2018-Feb-17 06:30N 29°29' W 094°36'0 0.0
2018-Feb-17 06:00N 29°29' W 094°36'0 0.0
2018-Feb-17 05:30N 29°29' W 094°36'0 0.0
2018-Feb-17 05:00N 29°29' W 094°36'0 0.0
2018-Feb-17 04:30N 29°29' W 094°36'0 0.0
2018-Feb-17 04:00N 29°29' W 094°36'0 0.0
2018-Feb-17 03:30N 29°29' W 094°36'0 0.0
2018-Feb-17 02:57N 29°29' W 094°36'0 0.0
2018-Feb-17 02:30N 29°29' W 094°36'0 0.1
2018-Feb-17 02:00N 29°29' W 094°36'0 0.1
2018-Feb-17 01:29N 29°29' W 094°36'0 0.1
2018-Feb-17 00:54N 29°29' W 094°36'0 0.0
2018-Feb-17 00:30N 29°29' W 094°36'0 0.0
2018-Feb-16 23:37N 29°29' W 094°36'0 0.2
2018-Feb-16 23:30N 29°29' W 094°36'0 0.2
2018-Feb-16 23:00N 29°29' W 094°36'13 3.1
2018-Feb-16 18:50N 29°26' W 094°50'3 7.8
2018-Feb-16 18:30N 29°29' W 094°51'4 8.2
2018-Feb-16 18:00N 29°32' W 094°54'4 7.8
2018-Feb-16 17:30N 29°35' W 094°56'4 7.7
2018-Feb-16 17:00N 29°39' W 094°58'4 8.0
2018-Feb-16 16:30N 29°42' W 095°01'4 7.9
2018-Feb-16 16:00N 29°45' W 095°04'2 4.1
2018-Feb-16 15:30N 29°46' W 095°06'0 0.5
2018-Feb-16 14:50N 29°46' W 095°06'0 0.0
2018-Feb-16 14:30N 29°46' W 095°06'0 0.0
2018-Feb-16 05:20N 29°46' W 095°06'0 0.0
2018-Feb-16 04:51N 29°46' W 095°06'0 0.0
2018-Feb-16 04:23N 29°46' W 095°06'0 0.0
2018-Feb-16 03:58N 29°46' W 095°06'0 0.0
2018-Feb-16 03:26N 29°46' W 095°06'0 0.0
2018-Feb-15 17:19N 29°46' W 095°06'1 1.6
2018-Feb-15 16:59N 29°46' W 095°05'  

Dump ship's entire track history